sensor_id;sensor_type;location;lat;lon;timestamp;P1;durP1;ratioP1;P2;durP2;ratioP2
25327;SDS011;13279;51.300;12.394;2023-01-25T00:00:42;40.77;;;16.47;;
25327;SDS011;13279;51.300;12.394;2023-01-25T00:03:10;45.03;;;16.47;;
25327;SDS011;13279;51.300;12.394;2023-01-25T00:05:37;47.30;;;17.20;;
25327;SDS011;13279;51.300;12.394;2023-01-25T00:08:06;53.77;;;17.70;;
25327;SDS011;13279;51.300;12.394;2023-01-25T00:10:34;43.40;;;16.07;;
25327;SDS011;13279;51.300;12.394;2023-01-25T00:13:02;41.70;;;16.77;;
25327;SDS011;13279;51.300;12.394;2023-01-25T00:15:29;46.03;;;17.73;;
25327;SDS011;13279;51.300;12.394;2023-01-25T00:17:57;46.97;;;17.67;;
25327;SDS011;13279;51.300;12.394;2023-01-25T00:20:25;46.20;;;17.90;;
25327;SDS011;13279;51.300;12.394;2023-01-25T00:22:53;40.67;;;16.60;;
25327;SDS011;13279;51.300;12.394;2023-01-25T00:25:21;40.20;;;15.07;;
25327;SDS011;13279;51.300;12.394;2023-01-25T00:27:49;40.47;;;16.10;;
25327;SDS011;13279;51.300;12.394;2023-01-25T00:30:17;37.80;;;14.93;;
25327;SDS011;13279;51.300;12.394;2023-01-25T00:32:51;46.73;;;16.40;;
25327;SDS011;13279;51.300;12.394;2023-01-25T00:35:28;36.73;;;15.40;;
25327;SDS011;13279;51.300;12.394;2023-01-25T00:37:56;35.70;;;14.57;;
25327;SDS011;13279;51.300;12.394;2023-01-25T00:40:30;41.53;;;15.57;;
25327;SDS011;13279;51.300;12.394;2023-01-25T00:42:57;40.47;;;15.37;;
25327;SDS011;13279;51.300;12.394;2023-01-25T00:45:26;43.90;;;17.03;;
25327;SDS011;13279;51.300;12.394;2023-01-25T00:47:53;51.27;;;16.30;;
25327;SDS011;13279;51.300;12.394;2023-01-25T00:50:22;36.13;;;14.67;;
25327;SDS011;13279;51.300;12.394;2023-01-25T00:52:51;45.97;;;15.93;;
25327;SDS011;13279;51.300;12.394;2023-01-25T00:55:19;39.47;;;16.00;;
25327;SDS011;13279;51.300;12.394;2023-01-25T00:57:49;45.73;;;16.67;;
25327;SDS011;13279;51.300;12.394;2023-01-25T01:00:17;46.13;;;15.60;;
25327;SDS011;13279;51.300;12.394;2023-01-25T01:02:45;45.30;;;16.30;;
25327;SDS011;13279;51.300;12.394;2023-01-25T01:05:13;42.23;;;16.27;;
25327;SDS011;13279;51.300;12.394;2023-01-25T01:07:41;30.97;;;14.17;;
25327;SDS011;13279;51.300;12.394;2023-01-25T01:10:11;40.43;;;15.20;;
25327;SDS011;13279;51.300;12.394;2023-01-25T01:12:39;47.77;;;15.70;;
25327;SDS011;13279;51.300;12.394;2023-01-25T01:15:11;36.67;;;13.80;;
25327;SDS011;13279;51.300;12.394;2023-01-25T01:17:38;37.67;;;15.03;;
25327;SDS011;13279;51.300;12.394;2023-01-25T01:20:06;35.87;;;13.80;;
25327;SDS011;13279;51.300;12.394;2023-01-25T01:22:34;38.80;;;14.73;;
25327;SDS011;13279;51.300;12.394;2023-01-25T01:25:02;38.50;;;13.70;;
25327;SDS011;13279;51.300;12.394;2023-01-25T01:27:30;37.83;;;14.50;;
25327;SDS011;13279;51.300;12.394;2023-01-25T01:29:58;37.30;;;15.23;;
25327;SDS011;13279;51.300;12.394;2023-01-25T01:32:27;40.47;;;14.87;;
25327;SDS011;13279;51.300;12.394;2023-01-25T01:34:54;35.17;;;14.30;;
25327;SDS011;13279;51.300;12.394;2023-01-25T01:37:22;40.57;;;15.93;;
25327;SDS011;13279;51.300;12.394;2023-01-25T01:39:50;38.40;;;14.40;;
25327;SDS011;13279;51.300;12.394;2023-01-25T01:42:18;39.23;;;13.60;;
25327;SDS011;13279;51.300;12.394;2023-01-25T01:44:47;35.93;;;14.53;;
25327;SDS011;13279;51.300;12.394;2023-01-25T01:47:19;38.37;;;14.90;;
25327;SDS011;13279;51.300;12.394;2023-01-25T01:49:58;38.60;;;16.30;;
25327;SDS011;13279;51.300;12.394;2023-01-25T01:52:31;40.30;;;15.40;;
25327;SDS011;13279;51.300;12.394;2023-01-25T01:55:03;30.80;;;13.53;;
25327;SDS011;13279;51.300;12.394;2023-01-25T01:57:35;34.60;;;14.67;;
25327;SDS011;13279;51.300;12.394;2023-01-25T02:00:10;35.83;;;14.03;;
25327;SDS011;13279;51.300;12.394;2023-01-25T02:02:43;38.63;;;14.33;;
25327;SDS011;13279;51.300;12.394;2023-01-25T02:05:16;37.67;;;15.00;;
25327;SDS011;13279;51.300;12.394;2023-01-25T02:07:47;40.80;;;15.03;;
25327;SDS011;13279;51.300;12.394;2023-01-25T02:10:18;36.97;;;15.10;;
25327;SDS011;13279;51.300;12.394;2023-01-25T02:12:48;37.10;;;13.77;;
25327;SDS011;13279;51.300;12.394;2023-01-25T02:15:18;37.17;;;14.60;;
25327;SDS011;13279;51.300;12.394;2023-01-25T02:17:46;41.43;;;15.87;;
25327;SDS011;13279;51.300;12.394;2023-01-25T02:20:18;35.30;;;14.60;;
25327;SDS011;13279;51.300;12.394;2023-01-25T02:22:52;39.13;;;15.23;;
25327;SDS011;13279;51.300;12.394;2023-01-25T02:25:26;35.30;;;14.37;;
25327;SDS011;13279;51.300;12.394;2023-01-25T02:27:55;44.03;;;15.23;;
25327;SDS011;13279;51.300;12.394;2023-01-25T02:30:26;41.70;;;16.83;;
25327;SDS011;13279;51.300;12.394;2023-01-25T02:32:54;43.77;;;16.00;;
25327;SDS011;13279;51.300;12.394;2023-01-25T02:35:22;39.07;;;15.17;;
25327;SDS011;13279;51.300;12.394;2023-01-25T02:37:51;35.30;;;16.23;;
25327;SDS011;13279;51.300;12.394;2023-01-25T02:40:18;47.70;;;16.40;;
25327;SDS011;13279;51.300;12.394;2023-01-25T02:42:47;45.67;;;16.00;;
25327;SDS011;13279;51.300;12.394;2023-01-25T02:45:16;45.47;;;16.00;;
25327;SDS011;13279;51.300;12.394;2023-01-25T02:47:47;44.37;;;14.90;;
25327;SDS011;13279;51.300;12.394;2023-01-25T02:50:15;40.07;;;15.03;;
25327;SDS011;13279;51.300;12.394;2023-01-25T02:52:42;40.13;;;15.10;;
25327;SDS011;13279;51.300;12.394;2023-01-25T02:55:10;41.57;;;16.67;;
25327;SDS011;13279;51.300;12.394;2023-01-25T02:57:40;50.93;;;16.13;;
25327;SDS011;13279;51.300;12.394;2023-01-25T03:00:10;49.53;;;16.70;;
25327;SDS011;13279;51.300;12.394;2023-01-25T03:02:38;42.77;;;16.90;;
25327;SDS011;13279;51.300;12.394;2023-01-25T03:05:06;52.80;;;17.87;;
25327;SDS011;13279;51.300;12.394;2023-01-25T03:07:33;47.87;;;17.00;;
25327;SDS011;13279;51.300;12.394;2023-01-25T03:10:02;49.83;;;16.50;;
25327;SDS011;13279;51.300;12.394;2023-01-25T03:12:32;44.37;;;15.30;;
25327;SDS011;13279;51.300;12.394;2023-01-25T03:15:00;47.47;;;16.13;;
25327;SDS011;13279;51.300;12.394;2023-01-25T03:17:29;50.47;;;15.60;;
25327;SDS011;13279;51.300;12.394;2023-01-25T03:19:57;41.30;;;16.03;;
25327;SDS011;13279;51.300;12.394;2023-01-25T03:22:25;43.03;;;15.30;;
25327;SDS011;13279;51.300;12.394;2023-01-25T03:24:52;41.53;;;15.67;;
25327;SDS011;13279;51.300;12.394;2023-01-25T03:27:22;38.40;;;14.40;;
25327;SDS011;13279;51.300;12.394;2023-01-25T03:30:00;38.00;;;13.80;;
25327;SDS011;13279;51.300;12.394;2023-01-25T03:32:32;39.90;;;13.57;;
25327;SDS011;13279;51.300;12.394;2023-01-25T03:35:04;41.07;;;15.83;;
25327;SDS011;13279;51.300;12.394;2023-01-25T03:37:32;40.97;;;15.70;;
25327;SDS011;13279;51.300;12.394;2023-01-25T03:40:00;38.90;;;15.13;;
25327;SDS011;13279;51.300;12.394;2023-01-25T03:42:29;40.23;;;15.13;;
25327;SDS011;13279;51.300;12.394;2023-01-25T03:44:57;40.67;;;15.83;;
25327;SDS011;13279;51.300;12.394;2023-01-25T03:47:25;35.00;;;13.63;;
25327;SDS011;13279;51.300;12.394;2023-01-25T03:49:54;43.90;;;16.30;;
25327;SDS011;13279;51.300;12.394;2023-01-25T03:52:22;39.03;;;15.33;;
25327;SDS011;13279;51.300;12.394;2023-01-25T03:54:51;41.13;;;15.40;;
25327;SDS011;13279;51.300;12.394;2023-01-25T03:57:19;43.23;;;15.20;;
25327;SDS011;13279;51.300;12.394;2023-01-25T03:59:55;38.60;;;15.83;;
25327;SDS011;13279;51.300;12.394;2023-01-25T04:02:23;41.97;;;15.20;;
25327;SDS011;13279;51.300;12.394;2023-01-25T04:04:51;41.47;;;15.77;;
25327;SDS011;13279;51.300;12.394;2023-01-25T04:07:21;35.43;;;14.53;;
25327;SDS011;13279;51.300;12.394;2023-01-25T04:09:49;39.17;;;14.90;;
25327;SDS011;13279;51.300;12.394;2023-01-25T04:12:17;48.30;;;15.83;;
25327;SDS011;13279;51.300;12.394;2023-01-25T04:14:45;42.90;;;15.10;;
25327;SDS011;13279;51.300;12.394;2023-01-25T04:17:23;44.43;;;16.33;;
25327;SDS011;13279;51.300;12.394;2023-01-25T04:20:00;49.40;;;15.20;;
25327;SDS011;13279;51.300;12.394;2023-01-25T04:22:35;39.33;;;15.17;;
25327;SDS011;13279;51.300;12.394;2023-01-25T04:25:04;40.97;;;15.90;;
25327;SDS011;13279;51.300;12.394;2023-01-25T04:27:37;45.73;;;16.73;;
25327;SDS011;13279;51.300;12.394;2023-01-25T04:30:09;42.07;;;15.33;;
25327;SDS011;13279;51.300;12.394;2023-01-25T04:32:37;47.63;;;15.60;;
25327;SDS011;13279;51.300;12.394;2023-01-25T04:35:15;45.50;;;16.47;;
25327;SDS011;13279;51.300;12.394;2023-01-25T04:37:45;41.17;;;16.47;;
25327;SDS011;13279;51.300;12.394;2023-01-25T04:40:19;52.87;;;17.63;;
25327;SDS011;13279;51.300;12.394;2023-01-25T04:42:47;38.13;;;15.40;;
25327;SDS011;13279;51.300;12.394;2023-01-25T04:45:15;38.87;;;15.63;;
25327;SDS011;13279;51.300;12.394;2023-01-25T04:47:43;45.37;;;16.10;;
25327;SDS011;13279;51.300;12.394;2023-01-25T04:50:11;47.83;;;15.63;;
25327;SDS011;13279;51.300;12.394;2023-01-25T04:52:38;42.83;;;16.33;;
25327;SDS011;13279;51.300;12.394;2023-01-25T04:55:08;39.30;;;14.70;;
25327;SDS011;13279;51.300;12.394;2023-01-25T04:57:41;43.97;;;16.90;;
25327;SDS011;13279;51.300;12.394;2023-01-25T05:00:09;42.97;;;16.10;;
25327;SDS011;13279;51.300;12.394;2023-01-25T05:02:37;56.53;;;16.77;;
25327;SDS011;13279;51.300;12.394;2023-01-25T05:05:06;54.37;;;18.47;;
25327;SDS011;13279;51.300;12.394;2023-01-25T05:07:34;47.40;;;16.23;;
25327;SDS011;13279;51.300;12.394;2023-01-25T05:10:04;50.47;;;17.73;;
25327;SDS011;13279;51.300;12.394;2023-01-25T05:12:39;51.57;;;18.23;;
25327;SDS011;13279;51.300;12.394;2023-01-25T05:15:07;48.87;;;17.23;;
25327;SDS011;13279;51.300;12.394;2023-01-25T05:17:35;48.60;;;17.23;;
25327;SDS011;13279;51.300;12.394;2023-01-25T05:20:04;52.53;;;15.03;;
25327;SDS011;13279;51.300;12.394;2023-01-25T05:22:33;49.73;;;17.87;;
25327;SDS011;13279;51.300;12.394;2023-01-25T05:25:00;58.83;;;18.80;;
25327;SDS011;13279;51.300;12.394;2023-01-25T05:27:28;50.87;;;16.83;;
25327;SDS011;13279;51.300;12.394;2023-01-25T05:29:56;44.03;;;16.17;;
25327;SDS011;13279;51.300;12.394;2023-01-25T05:32:37;52.57;;;17.40;;
25327;SDS011;13279;51.300;12.394;2023-01-25T05:35:05;44.57;;;15.87;;
25327;SDS011;13279;51.300;12.394;2023-01-25T05:37:34;49.33;;;16.03;;
25327;SDS011;13279;51.300;12.394;2023-01-25T05:40:05;50.47;;;16.43;;
25327;SDS011;13279;51.300;12.394;2023-01-25T05:42:36;42.67;;;15.13;;
25327;SDS011;13279;51.300;12.394;2023-01-25T05:45:12;38.30;;;15.43;;
25327;SDS011;13279;51.300;12.394;2023-01-25T05:47:41;49.23;;;17.07;;
25327;SDS011;13279;51.300;12.394;2023-01-25T05:50:08;41.90;;;14.60;;
25327;SDS011;13279;51.300;12.394;2023-01-25T05:52:49;41.30;;;15.83;;
25327;SDS011;13279;51.300;12.394;2023-01-25T05:55:18;37.73;;;14.73;;
25327;SDS011;13279;51.300;12.394;2023-01-25T05:57:47;36.67;;;14.67;;
25327;SDS011;13279;51.300;12.394;2023-01-25T06:00:16;40.67;;;13.50;;
25327;SDS011;13279;51.300;12.394;2023-01-25T06:02:44;33.03;;;14.77;;
25327;SDS011;13279;51.300;12.394;2023-01-25T06:05:17;38.77;;;13.60;;
25327;SDS011;13279;51.300;12.394;2023-01-25T06:07:44;35.87;;;14.83;;
25327;SDS011;13279;51.300;12.394;2023-01-25T06:10:12;43.10;;;14.30;;
25327;SDS011;13279;51.300;12.394;2023-01-25T06:12:42;36.67;;;14.17;;
25327;SDS011;13279;51.300;12.394;2023-01-25T06:15:10;35.60;;;13.73;;
25327;SDS011;13279;51.300;12.394;2023-01-25T06:17:38;49.63;;;14.97;;
25327;SDS011;13279;51.300;12.394;2023-01-25T06:20:25;46.87;;;14.70;;
25327;SDS011;13279;51.300;12.394;2023-01-25T06:23:04;41.43;;;15.23;;
25327;SDS011;13279;51.300;12.394;2023-01-25T06:25:32;43.37;;;17.43;;
25327;SDS011;13279;51.300;12.394;2023-01-25T06:28:00;44.30;;;15.67;;
25327;SDS011;13279;51.300;12.394;2023-01-25T06:30:28;36.87;;;14.37;;
25327;SDS011;13279;51.300;12.394;2023-01-25T06:32:57;39.13;;;14.00;;
25327;SDS011;13279;51.300;12.394;2023-01-25T06:35:25;43.73;;;16.07;;
25327;SDS011;13279;51.300;12.394;2023-01-25T06:37:54;48.70;;;16.17;;
25327;SDS011;13279;51.300;12.394;2023-01-25T06:40:22;40.97;;;14.13;;
25327;SDS011;13279;51.300;12.394;2023-01-25T06:42:49;41.50;;;15.93;;
25327;SDS011;13279;51.300;12.394;2023-01-25T06:45:17;44.10;;;15.07;;
25327;SDS011;13279;51.300;12.394;2023-01-25T06:47:47;42.63;;;13.67;;
25327;SDS011;13279;51.300;12.394;2023-01-25T06:50:16;43.23;;;14.83;;
25327;SDS011;13279;51.300;12.394;2023-01-25T06:52:50;41.80;;;16.10;;
25327;SDS011;13279;51.300;12.394;2023-01-25T06:55:18;43.27;;;15.83;;
25327;SDS011;13279;51.300;12.394;2023-01-25T06:57:46;44.70;;;15.40;;
25327;SDS011;13279;51.300;12.394;2023-01-25T07:00:17;37.30;;;15.33;;
25327;SDS011;13279;51.300;12.394;2023-01-25T07:02:45;35.13;;;15.53;;
25327;SDS011;13279;51.300;12.394;2023-01-25T07:05:13;43.43;;;15.33;;
25327;SDS011;13279;51.300;12.394;2023-01-25T07:07:44;36.47;;;14.37;;
25327;SDS011;13279;51.300;12.394;2023-01-25T07:10:11;36.83;;;12.93;;
25327;SDS011;13279;51.300;12.394;2023-01-25T07:12:39;33.63;;;14.27;;
25327;SDS011;13279;51.300;12.394;2023-01-25T07:15:07;35.20;;;13.87;;
25327;SDS011;13279;51.300;12.394;2023-01-25T07:17:34;25.57;;;11.50;;
25327;SDS011;13279;51.300;12.394;2023-01-25T07:20:02;25.63;;;11.20;;
25327;SDS011;13279;51.300;12.394;2023-01-25T07:22:30;33.97;;;11.23;;
25327;SDS011;13279;51.300;12.394;2023-01-25T07:25:01;28.47;;;11.17;;
25327;SDS011;13279;51.300;12.394;2023-01-25T07:27:31;28.03;;;11.40;;
25327;SDS011;13279;51.300;12.394;2023-01-25T07:29:59;30.30;;;11.30;;
25327;SDS011;13279;51.300;12.394;2023-01-25T07:32:27;32.30;;;11.87;;
25327;SDS011;13279;51.300;12.394;2023-01-25T07:34:55;37.73;;;13.40;;
25327;SDS011;13279;51.300;12.394;2023-01-25T07:37:22;40.50;;;13.23;;
25327;SDS011;13279;51.300;12.394;2023-01-25T07:39:52;36.53;;;13.37;;
25327;SDS011;13279;51.300;12.394;2023-01-25T07:42:24;30.07;;;12.10;;
25327;SDS011;13279;51.300;12.394;2023-01-25T07:45:09;31.33;;;11.53;;
25327;SDS011;13279;51.300;12.394;2023-01-25T07:47:36;30.27;;;12.13;;
25327;SDS011;13279;51.300;12.394;2023-01-25T07:50:04;28.33;;;12.53;;
25327;SDS011;13279;51.300;12.394;2023-01-25T07:52:33;32.63;;;12.80;;
25327;SDS011;13279;51.300;12.394;2023-01-25T07:55:00;36.30;;;13.30;;
25327;SDS011;13279;51.300;12.394;2023-01-25T07:57:28;43.53;;;15.40;;
25327;SDS011;13279;51.300;12.394;2023-01-25T07:59:56;38.93;;;14.57;;
25327;SDS011;13279;51.300;12.394;2023-01-25T08:02:24;40.37;;;14.43;;
25327;SDS011;13279;51.300;12.394;2023-01-25T08:04:51;34.37;;;12.70;;
25327;SDS011;13279;51.300;12.394;2023-01-25T08:07:19;39.03;;;13.77;;
25327;SDS011;13279;51.300;12.394;2023-01-25T08:09:48;40.10;;;13.23;;
25327;SDS011;13279;51.300;12.394;2023-01-25T08:12:16;37.70;;;14.17;;
25327;SDS011;13279;51.300;12.394;2023-01-25T08:15:08;33.30;;;13.87;;
25327;SDS011;13279;51.300;12.394;2023-01-25T08:17:36;33.87;;;13.67;;
25327;SDS011;13279;51.300;12.394;2023-01-25T08:20:04;35.33;;;14.20;;
25327;SDS011;13279;51.300;12.394;2023-01-25T08:22:32;38.67;;;14.37;;
25327;SDS011;13279;51.300;12.394;2023-01-25T08:25:00;45.37;;;17.17;;
25327;SDS011;13279;51.300;12.394;2023-01-25T08:27:27;39.70;;;15.87;;
25327;SDS011;13279;51.300;12.394;2023-01-25T08:29:55;41.47;;;16.27;;
25327;SDS011;13279;51.300;12.394;2023-01-25T08:32:24;36.50;;;14.33;;
25327;SDS011;13279;51.300;12.394;2023-01-25T08:34:52;39.37;;;15.77;;
25327;SDS011;13279;51.300;12.394;2023-01-25T08:37:19;36.73;;;14.00;;
25327;SDS011;13279;51.300;12.394;2023-01-25T08:39:46;37.20;;;14.20;;
25327;SDS011;13279;51.300;12.394;2023-01-25T08:42:14;34.63;;;13.90;;
25327;SDS011;13279;51.300;12.394;2023-01-25T08:44:41;38.63;;;14.07;;
25327;SDS011;13279;51.300;12.394;2023-01-25T08:47:09;44.43;;;16.03;;
25327;SDS011;13279;51.300;12.394;2023-01-25T08:49:38;40.30;;;15.87;;
25327;SDS011;13279;51.300;12.394;2023-01-25T08:52:05;42.20;;;16.70;;
25327;SDS011;13279;51.300;12.394;2023-01-25T08:54:32;37.23;;;15.53;;
25327;SDS011;13279;51.300;12.394;2023-01-25T08:57:00;36.67;;;15.13;;
25327;SDS011;13279;51.300;12.394;2023-01-25T08:59:28;29.23;;;13.60;;
25327;SDS011;13279;51.300;12.394;2023-01-25T09:01:55;32.90;;;13.57;;
25327;SDS011;13279;51.300;12.394;2023-01-25T09:04:23;39.63;;;14.00;;
25327;SDS011;13279;51.300;12.394;2023-01-25T09:06:54;35.40;;;14.33;;
25327;SDS011;13279;51.300;12.394;2023-01-25T09:09:22;38.03;;;14.67;;
25327;SDS011;13279;51.300;12.394;2023-01-25T09:11:49;40.23;;;16.33;;
25327;SDS011;13279;51.300;12.394;2023-01-25T09:14:17;42.93;;;16.33;;
25327;SDS011;13279;51.300;12.394;2023-01-25T09:16:45;42.60;;;16.70;;
25327;SDS011;13279;51.300;12.394;2023-01-25T09:19:12;44.70;;;16.57;;
25327;SDS011;13279;51.300;12.394;2023-01-25T09:21:40;42.97;;;16.47;;
25327;SDS011;13279;51.300;12.394;2023-01-25T09:24:09;41.27;;;17.23;;
25327;SDS011;13279;51.300;12.394;2023-01-25T09:26:37;39.43;;;16.13;;
25327;SDS011;13279;51.300;12.394;2023-01-25T09:29:05;43.13;;;16.50;;
25327;SDS011;13279;51.300;12.394;2023-01-25T09:31:33;43.87;;;16.67;;
25327;SDS011;13279;51.300;12.394;2023-01-25T09:34:07;44.57;;;15.60;;
25327;SDS011;13279;51.300;12.394;2023-01-25T09:36:36;42.47;;;15.57;;
25327;SDS011;13279;51.300;12.394;2023-01-25T09:39:04;34.50;;;15.57;;
25327;SDS011;13279;51.300;12.394;2023-01-25T09:44:43;42.80;;;14.93;;
25327;SDS011;13279;51.300;12.394;2023-01-25T09:47:28;35.17;;;14.37;;
25327;SDS011;13279;51.300;12.394;2023-01-25T09:50:14;28.87;;;13.87;;
25327;SDS011;13279;51.300;12.394;2023-01-25T09:55:54;28.23;;;11.97;;
25327;SDS011;13279;51.300;12.394;2023-01-25T09:58:29;28.57;;;11.40;;
25327;SDS011;13279;51.300;12.394;2023-01-25T10:01:21;27.53;;;11.37;;
25327;SDS011;13279;51.300;12.394;2023-01-25T10:03:54;30.77;;;11.73;;
25327;SDS011;13279;51.300;12.394;2023-01-25T10:06:27;24.00;;;12.27;;
25327;SDS011;13279;51.300;12.394;2023-01-25T10:09:04;26.57;;;12.37;;
25327;SDS011;13279;51.300;12.394;2023-01-25T10:11:41;27.43;;;11.60;;
25327;SDS011;13279;51.300;12.394;2023-01-25T10:14:11;23.13;;;11.40;;
25327;SDS011;13279;51.300;12.394;2023-01-25T10:16:50;27.10;;;12.23;;
25327;SDS011;13279;51.300;12.394;2023-01-25T10:19:31;21.93;;;10.40;;
25327;SDS011;13279;51.300;12.394;2023-01-25T10:22:09;22.50;;;11.10;;
25327;SDS011;13279;51.300;12.394;2023-01-25T10:24:49;25.00;;;11.80;;
25327;SDS011;13279;51.300;12.394;2023-01-25T10:27:27;27.70;;;12.87;;
25327;SDS011;13279;51.300;12.394;2023-01-25T10:30:02;23.90;;;10.87;;
25327;SDS011;13279;51.300;12.394;2023-01-25T10:32:46;25.40;;;11.93;;
25327;SDS011;13279;51.300;12.394;2023-01-25T10:35:19;25.93;;;12.07;;
25327;SDS011;13279;51.300;12.394;2023-01-25T10:37:49;24.70;;;11.80;;
25327;SDS011;13279;51.300;12.394;2023-01-25T10:40:17;23.93;;;12.07;;
25327;SDS011;13279;51.300;12.394;2023-01-25T10:42:50;31.20;;;11.07;;
25327;SDS011;13279;51.300;12.394;2023-01-25T10:45:24;24.37;;;11.20;;
25327;SDS011;13279;51.300;12.394;2023-01-25T10:47:54;29.70;;;12.83;;
25327;SDS011;13279;51.300;12.394;2023-01-25T10:50:48;25.37;;;12.00;;
25327;SDS011;13279;51.300;12.394;2023-01-25T10:53:25;26.70;;;11.67;;
25327;SDS011;13279;51.300;12.394;2023-01-25T10:58:47;24.93;;;11.57;;
25327;SDS011;13279;51.300;12.394;2023-01-25T11:01:26;31.37;;;12.10;;
25327;SDS011;13279;51.300;12.394;2023-01-25T11:03:57;25.53;;;12.13;;
25327;SDS011;13279;51.300;12.394;2023-01-25T11:06:30;24.57;;;11.37;;
25327;SDS011;13279;51.300;12.394;2023-01-25T11:09:00;25.80;;;11.40;;
25327;SDS011;13279;51.300;12.394;2023-01-25T11:11:31;21.53;;;11.60;;
25327;SDS011;13279;51.300;12.394;2023-01-25T11:14:09;23.33;;;10.83;;
25327;SDS011;13279;51.300;12.394;2023-01-25T11:16:43;25.17;;;11.87;;
25327;SDS011;13279;51.300;12.394;2023-01-25T11:19:27;25.20;;;12.17;;
25327;SDS011;13279;51.300;12.394;2023-01-25T11:21:59;31.77;;;12.30;;
25327;SDS011;13279;51.300;12.394;2023-01-25T11:24:30;21.93;;;11.20;;
25327;SDS011;13279;51.300;12.394;2023-01-25T11:27:11;24.23;;;11.93;;
25327;SDS011;13279;51.300;12.394;2023-01-25T11:29:47;29.47;;;12.57;;
25327;SDS011;13279;51.300;12.394;2023-01-25T11:35:14;26.47;;;11.27;;
25327;SDS011;13279;51.300;12.394;2023-01-25T11:37:53;30.03;;;11.40;;
25327;SDS011;13279;51.300;12.394;2023-01-25T11:40:36;29.87;;;10.00;;
25327;SDS011;13279;51.300;12.394;2023-01-25T11:43:33;31.47;;;12.83;;
25327;SDS011;13279;51.300;12.394;2023-01-25T11:49:30;31.47;;;13.17;;
25327;SDS011;13279;51.300;12.394;2023-01-25T11:52:34;26.13;;;11.20;;
25327;SDS011;13279;51.300;12.394;2023-01-25T11:55:27;34.83;;;13.50;;
25327;SDS011;13279;51.300;12.394;2023-01-25T11:58:49;27.10;;;12.83;;
25327;SDS011;13279;51.300;12.394;2023-01-25T12:02:03;26.63;;;12.07;;
25327;SDS011;13279;51.300;12.394;2023-01-25T12:04:59;30.33;;;12.80;;
25327;SDS011;13279;51.300;12.394;2023-01-25T12:11:22;28.70;;;12.37;;
25327;SDS011;13279;51.300;12.394;2023-01-25T12:15:13;29.80;;;13.87;;
25327;SDS011;13279;51.300;12.394;2023-01-25T12:18:20;31.77;;;12.63;;
25327;SDS011;13279;51.300;12.394;2023-01-25T12:21:33;31.73;;;12.70;;
25327;SDS011;13279;51.300;12.394;2023-01-25T12:28:25;30.97;;;12.70;;
25327;SDS011;13279;51.300;12.394;2023-01-25T12:31:41;26.17;;;11.90;;
25327;SDS011;13279;51.300;12.394;2023-01-25T12:34:30;34.67;;;12.93;;
25327;SDS011;13279;51.300;12.394;2023-01-25T12:37:18;28.27;;;11.87;;
25327;SDS011;13279;51.300;12.394;2023-01-25T12:40:14;31.63;;;12.87;;
25327;SDS011;13279;51.300;12.394;2023-01-25T12:43:37;31.03;;;12.67;;
25327;SDS011;13279;51.300;12.394;2023-01-25T12:46:53;31.27;;;11.43;;
25327;SDS011;13279;51.300;12.394;2023-01-25T12:49:54;30.13;;;11.57;;
25327;SDS011;13279;51.300;12.394;2023-01-25T12:52:50;24.37;;;12.63;;
25327;SDS011;13279;51.300;12.394;2023-01-25T12:55:27;32.40;;;12.83;;
25327;SDS011;13279;51.300;12.394;2023-01-25T12:58:11;36.73;;;15.13;;
25327;SDS011;13279;51.300;12.394;2023-01-25T13:01:24;28.67;;;12.03;;
25327;SDS011;13279;51.300;12.394;2023-01-25T13:18:45;38.10;;;14.60;;
25327;SDS011;13279;51.300;12.394;2023-01-25T13:24:10;37.93;;;13.67;;
25327;SDS011;13279;51.300;12.394;2023-01-25T13:26:46;41.60;;;15.53;;
25327;SDS011;13279;51.300;12.394;2023-01-25T13:38:24;33.87;;;13.80;;
25327;SDS011;13279;51.300;12.394;2023-01-25T13:41:01;33.37;;;12.87;;
25327;SDS011;13279;51.300;12.394;2023-01-25T13:43:53;31.97;;;14.17;;
25327;SDS011;13279;51.300;12.394;2023-01-25T13:46:37;32.63;;;12.47;;
25327;SDS011;13279;51.300;12.394;2023-01-25T13:49:05;32.67;;;14.10;;
25327;SDS011;13279;51.300;12.394;2023-01-25T13:55:17;35.23;;;13.90;;
25327;SDS011;13279;51.300;12.394;2023-01-25T13:58:19;37.37;;;13.93;;
25327;SDS011;13279;51.300;12.394;2023-01-25T14:01:00;35.53;;;16.00;;
25327;SDS011;13279;51.300;12.394;2023-01-25T14:04:22;35.30;;;13.80;;
25327;SDS011;13279;51.300;12.394;2023-01-25T14:13:39;29.17;;;12.93;;
25327;SDS011;13279;51.300;12.394;2023-01-25T14:16:59;28.33;;;11.23;;
25327;SDS011;13279;51.300;12.394;2023-01-25T14:19:54;39.77;;;12.60;;
25327;SDS011;13279;51.300;12.394;2023-01-25T14:22:32;33.43;;;13.73;;
25327;SDS011;13279;51.300;12.394;2023-01-25T14:25:14;29.83;;;14.03;;
25327;SDS011;13279;51.300;12.394;2023-01-25T14:28:15;33.90;;;14.73;;
25327;SDS011;13279;51.300;12.394;2023-01-25T14:31:20;37.33;;;14.00;;
25327;SDS011;13279;51.300;12.394;2023-01-25T14:37:53;39.07;;;15.73;;
25327;SDS011;13279;51.300;12.394;2023-01-25T14:40:48;46.63;;;15.53;;
25327;SDS011;13279;51.300;12.394;2023-01-25T14:46:04;34.60;;;14.47;;
25327;SDS011;13279;51.300;12.394;2023-01-25T14:46:48;42.87;;;15.13;;
25327;SDS011;13279;51.300;12.394;2023-01-25T14:53:13;39.83;;;15.57;;
25327;SDS011;13279;51.300;12.394;2023-01-25T14:55:48;35.13;;;14.67;;
25327;SDS011;13279;51.300;12.394;2023-01-25T14:58:26;40.80;;;16.50;;
25327;SDS011;13279;51.300;12.394;2023-01-25T15:06:34;39.83;;;14.70;;
25327;SDS011;13279;51.300;12.394;2023-01-25T15:13:20;36.93;;;14.67;;
25327;SDS011;13279;51.300;12.394;2023-01-25T15:19:52;35.97;;;13.53;;
25327;SDS011;13279;51.300;12.394;2023-01-25T15:22:37;38.83;;;15.60;;
25327;SDS011;13279;51.300;12.394;2023-01-25T15:26:11;41.23;;;16.43;;
25327;SDS011;13279;51.300;12.394;2023-01-25T15:29:11;33.40;;;13.70;;
25327;SDS011;13279;51.300;12.394;2023-01-25T15:32:19;36.10;;;14.43;;
25327;SDS011;13279;51.300;12.394;2023-01-25T15:37:53;34.33;;;14.97;;
25327;SDS011;13279;51.300;12.394;2023-01-25T15:40:44;35.17;;;14.20;;
25327;SDS011;13279;51.300;12.394;2023-01-25T15:43:43;34.33;;;13.40;;
25327;SDS011;13279;51.300;12.394;2023-01-25T15:46:38;32.30;;;13.07;;
25327;SDS011;13279;51.300;12.394;2023-01-25T15:49:20;31.47;;;12.20;;
25327;SDS011;13279;51.300;12.394;2023-01-25T15:52:12;28.87;;;13.63;;
25327;SDS011;13279;51.300;12.394;2023-01-25T15:54:43;26.70;;;12.30;;
25327;SDS011;13279;51.300;12.394;2023-01-25T15:58:35;25.40;;;12.00;;
25327;SDS011;13279;51.300;12.394;2023-01-25T16:01:06;33.30;;;12.40;;
25327;SDS011;13279;51.300;12.394;2023-01-25T16:03:37;26.27;;;11.97;;
25327;SDS011;13279;51.300;12.394;2023-01-25T16:06:19;27.33;;;12.87;;
25327;SDS011;13279;51.300;12.394;2023-01-25T16:09:12;26.80;;;12.33;;
25327;SDS011;13279;51.300;12.394;2023-01-25T16:12:01;27.10;;;12.33;;
25327;SDS011;13279;51.300;12.394;2023-01-25T16:14:37;31.77;;;12.87;;
25327;SDS011;13279;51.300;12.394;2023-01-25T16:17:22;31.07;;;12.90;;